createdAt,value
2022-08-16T00:00:04.334Z,19.72
2022-08-16T00:02:29.469Z,19.70
2022-08-16T00:05:00.252Z,19.69
2022-08-16T00:07:30.543Z,19.65
2022-08-16T00:10:03.906Z,19.63
2022-08-16T00:12:33.170Z,19.61
2022-08-16T00:15:11.685Z,19.58
2022-08-16T00:17:56.361Z,19.56
2022-08-16T00:20:14.921Z,19.54
2022-08-16T00:22:45.251Z,19.52
2022-08-16T00:25:17.503Z,19.51
2022-08-16T00:27:47.229Z,19.49
2022-08-16T00:30:19.798Z,19.50
2022-08-16T00:32:52.813Z,19.46
2022-08-16T00:35:26.994Z,19.43
2022-08-16T00:37:59.548Z,19.41
2022-08-16T00:40:34.399Z,19.38
2022-08-16T00:43:12.011Z,19.37
2022-08-16T00:46:00.273Z,19.34
2022-08-16T00:48:31.140Z,19.32
2022-08-16T00:50:58.737Z,19.32
2022-08-16T00:53:31.111Z,19.29
2022-08-16T00:56:05.256Z,19.33
2022-08-16T00:58:39.352Z,19.28
2022-08-16T01:01:16.302Z,19.27
2022-08-16T01:03:54.435Z,19.26
2022-08-16T01:06:32.626Z,19.28
2022-08-16T01:09:00.073Z,19.26
2022-08-16T01:11:32.843Z,19.25
2022-08-16T01:14:12.316Z,19.26
2022-08-16T01:16:44.205Z,19.26
2022-08-16T01:19:40.867Z,19.28
2022-08-16T01:22:46.863Z,19.27
2022-08-16T01:25:17.097Z,19.27
2022-08-16T01:27:49.365Z,19.26
2022-08-16T01:30:28.761Z,19.24
2022-08-16T01:33:14.511Z,19.24
2022-08-16T01:35:39.185Z,19.21
2022-08-16T01:38:29.588Z,19.19
2022-08-16T01:41:13.285Z,19.20
2022-08-16T01:43:46.113Z,19.19
2022-08-16T01:46:38.256Z,19.15
2022-08-16T01:49:02.395Z,19.12
2022-08-16T01:51:39.305Z,19.12
2022-08-16T01:54:16.780Z,19.08
2022-08-16T01:56:54.187Z,19.06
2022-08-16T01:59:29.227Z,19.07
2022-08-16T02:02:02.837Z,19.05
2022-08-16T02:04:48.835Z,19.04
2022-08-16T02:07:14.806Z,19.03
2022-08-16T02:09:57.497Z,18.98
2022-08-16T02:12:49.512Z,18.91
2022-08-16T02:15:01.039Z,18.85
2022-08-16T02:17:30.542Z,18.83
2022-08-16T02:20:03.259Z,18.78
2022-08-16T02:22:46.692Z,18.78
2022-08-16T02:25:14.638Z,18.76
2022-08-16T02:27:50.653Z,18.75
2022-08-16T02:30:37.403Z,18.75
2022-08-16T02:32:52.926Z,18.75
2022-08-16T02:35:25.695Z,18.76
2022-08-16T02:37:56.157Z,18.76
2022-08-16T02:40:29.172Z,18.76
2022-08-16T02:42:58.468Z,18.76
2022-08-16T02:45:33.440Z,18.74
2022-08-16T02:48:29.024Z,18.69
2022-08-16T02:50:53.901Z,18.69
2022-08-16T02:53:05.992Z,18.69
2022-08-16T02:55:41.217Z,18.65
2022-08-16T02:58:11.611Z,18.66
2022-08-16T03:00:45.633Z,18.68
2022-08-16T03:03:17.542Z,18.65
2022-08-16T03:05:49.993Z,18.62
2022-08-16T03:08:50.254Z,18.59
2022-08-16T03:10:51.680Z,18.55
2022-08-16T03:13:23.830Z,18.50
2022-08-16T03:15:55.800Z,18.44
2022-08-16T03:18:34.457Z,18.42
2022-08-16T03:20:59.727Z,18.40
2022-08-16T03:23:35.797Z,18.38
2022-08-16T03:26:04.142Z,18.36
2022-08-16T03:28:33.380Z,18.30
2022-08-16T03:31:06.152Z,18.26
2022-08-16T03:33:35.980Z,18.24
2022-08-16T03:36:30.959Z,18.19
2022-08-16T03:38:39.944Z,18.17
2022-08-16T03:41:24.439Z,18.18
2022-08-16T03:43:51.224Z,18.19
2022-08-16T03:46:47.729Z,18.24
2022-08-16T03:48:51.565Z,18.26
2022-08-16T03:51:25.384Z,18.26
2022-08-16T03:54:01.292Z,18.30
2022-08-16T03:56:30.476Z,18.34
2022-08-16T03:59:08.276Z,18.34
2022-08-16T04:01:46.353Z,18.30
2022-08-16T04:04:25.061Z,18.28
2022-08-16T04:06:51.308Z,18.21
2022-08-16T04:09:23.200Z,18.16
2022-08-16T04:11:57.533Z,18.12
2022-08-16T04:14:33.394Z,18.00
2022-08-16T04:16:58.103Z,17.98
2022-08-16T04:19:32.969Z,17.93
2022-08-16T04:22:08.548Z,17.87
2022-08-16T04:24:39.537Z,17.85
2022-08-16T04:27:12.583Z,17.79
2022-08-16T04:29:46.484Z,17.76
2022-08-16T04:32:16.863Z,17.76
2022-08-16T04:34:51.829Z,17.77
2022-08-16T04:37:23.100Z,17.75
2022-08-16T04:39:57.660Z,17.75
2022-08-16T04:42:29.708Z,17.74
2022-08-16T04:45:01.884Z,17.76
2022-08-16T04:47:35.614Z,17.79
2022-08-16T04:50:08.339Z,17.81
2022-08-16T04:52:39.177Z,17.84
2022-08-16T04:55:13.647Z,17.86
2022-08-16T04:57:52.618Z,17.88
2022-08-16T05:00:30.869Z,17.90
2022-08-16T05:02:55.853Z,17.89
2022-08-16T05:16:19.750Z,17.98
2022-08-16T05:18:47.976Z,18.03
2022-08-16T05:21:17.585Z,18.12
2022-08-16T05:23:55.398Z,18.21
2022-08-16T05:26:21.174Z,18.29
2022-08-16T05:28:55.501Z,18.32
2022-08-16T05:31:22.281Z,18.47
2022-08-16T05:33:53.517Z,18.49
2022-08-16T05:36:24.905Z,18.44
2022-08-16T05:38:56.136Z,18.57
2022-08-16T05:41:28.625Z,18.55
2022-08-16T05:44:05.325Z,18.73
2022-08-16T05:46:34.571Z,18.90
2022-08-16T05:49:09.410Z,19.11
2022-08-16T05:51:39.860Z,19.73
2022-08-16T05:54:11.650Z,20.34
2022-08-16T05:56:42.963Z,20.50
2022-08-16T05:59:13.949Z,20.49
2022-08-16T06:01:49.210Z,20.69
2022-08-16T06:04:35.639Z,21.64
2022-08-16T06:06:56.420Z,23.29
2022-08-16T06:09:25.326Z,24.01
2022-08-16T06:11:54.666Z,23.11
2022-08-16T06:14:23.947Z,21.61
2022-08-16T06:16:55.689Z,20.86
2022-08-16T06:19:27.053Z,20.06
2022-08-16T06:22:03.020Z,19.92
2022-08-16T06:24:53.390Z,19.69
2022-08-16T06:27:04.882Z,19.57
2022-08-16T06:29:34.722Z,19.46
2022-08-16T06:32:05.381Z,19.57
2022-08-16T06:34:56.858Z,19.59
2022-08-16T06:37:08.827Z,19.77
2022-08-16T06:39:49.552Z,19.85
2022-08-16T06:42:13.347Z,19.90
2022-08-16T06:44:46.534Z,20.03
2022-08-16T06:47:53.746Z,20.14
2022-08-16T06:49:58.447Z,20.40
2022-08-16T06:52:59.786Z,20.85
2022-08-16T06:55:02.173Z,21.21
2022-08-16T06:57:31.614Z,21.07
2022-08-16T07:00:02.963Z,20.77
2022-08-16T07:02:35.811Z,20.68
2022-08-16T07:05:14.974Z,20.67
2022-08-16T07:07:40.059Z,20.74
2022-08-16T07:10:11.606Z,20.93
2022-08-16T07:12:47.485Z,20.95
2022-08-16T07:15:18.682Z,21.07
2022-08-16T07:17:46.373Z,21.05
2022-08-16T07:20:35.386Z,21.12
2022-08-16T07:22:59.152Z,21.05
2022-08-16T07:25:32.795Z,21.09
2022-08-16T07:28:02.844Z,21.23
2022-08-16T07:30:45.196Z,21.34
2022-08-16T07:33:07.436Z,21.12
2022-08-16T07:35:44.311Z,21.11
2022-08-16T07:38:09.997Z,21.13
2022-08-16T07:40:59.639Z,21.15
2022-08-16T07:43:14.803Z,21.30
2022-08-16T07:45:48.264Z,21.49
2022-08-16T07:48:15.372Z,21.57
2022-08-16T07:50:56.214Z,21.35
2022-08-16T07:53:18.241Z,21.43
2022-08-16T07:55:48.359Z,21.41
2022-08-16T07:58:34.801Z,21.21
2022-08-16T08:00:51.922Z,21.35
2022-08-16T08:03:22.415Z,21.41
2022-08-16T08:05:54.838Z,21.54
2022-08-16T08:08:50.511Z,21.59
2022-08-16T08:10:55.413Z,21.77
2022-08-16T08:13:31.015Z,21.86
2022-08-16T08:16:00.065Z,21.93
2022-08-16T08:18:31.055Z,22.07
2022-08-16T08:21:02.486Z,22.19
2022-08-16T08:23:35.167Z,22.18
2022-08-16T08:26:17.748Z,22.50
2022-08-16T08:28:40.439Z,22.61
2022-08-16T08:31:10.332Z,22.86
2022-08-16T08:33:46.742Z,22.92
2022-08-16T08:36:21.830Z,23.30
2022-08-16T08:38:46.261Z,23.22
2022-08-16T08:41:18.852Z,23.05
2022-08-16T08:43:50.761Z,23.29
2022-08-16T08:46:23.649Z,23.38
2022-08-16T08:48:58.354Z,23.28
2022-08-16T08:51:35.533Z,23.40
2022-08-16T08:54:01.069Z,23.32
2022-08-16T08:56:35.151Z,23.60
2022-08-16T08:59:19.681Z,23.65
2022-08-16T09:01:57.760Z,23.79
2022-08-16T09:04:17.623Z,23.99
2022-08-16T09:06:48.568Z,24.37
2022-08-16T09:09:19.403Z,24.09
2022-08-16T09:12:00.259Z,24.34
2022-08-16T09:14:24.019Z,24.46
2022-08-16T09:17:03.675Z,24.12
2022-08-16T09:19:31.966Z,23.97
2022-08-16T09:21:58.481Z,23.88
2022-08-16T09:24:46.396Z,24.01
2022-08-16T09:26:59.416Z,24.42
2022-08-16T09:29:44.764Z,24.38
2022-08-16T09:32:00.401Z,24.60
2022-08-16T09:34:29.758Z,24.85
2022-08-16T09:37:00.242Z,25.08
2022-08-16T09:39:41.596Z,25.41
2022-08-16T09:42:00.842Z,25.84
2022-08-16T09:45:11.321Z,25.94
2022-08-16T09:47:02.436Z,26.08
2022-08-16T09:49:37.108Z,25.75
2022-08-16T09:52:04.926Z,25.75
2022-08-16T09:54:35.497Z,25.01
2022-08-16T09:57:04.914Z,25.01
2022-08-16T09:59:38.493Z,24.87
2022-08-16T10:02:26.290Z,25.06
2022-08-16T10:04:53.088Z,24.89
2022-08-16T10:07:15.068Z,25.51
2022-08-16T10:09:53.818Z,25.74
2022-08-16T10:12:28.242Z,26.47
2022-08-16T10:14:57.871Z,27.93
2022-08-16T10:17:27.963Z,27.42
2022-08-16T10:19:57.813Z,27.12
2022-08-16T10:22:27.408Z,27.11
2022-08-16T10:24:59.987Z,26.89
2022-08-16T10:27:46.959Z,27.02
2022-08-16T10:30:07.030Z,26.48
2022-08-16T10:32:32.160Z,26.16
2022-08-16T10:35:03.797Z,26.24
2022-08-16T10:37:36.239Z,26.47
2022-08-16T10:40:28.692Z,26.69
2022-08-16T10:42:37.909Z,26.94
2022-08-16T10:45:09.917Z,27.61
2022-08-16T10:47:39.558Z,27.96
2022-08-16T10:50:19.850Z,28.60
2022-08-16T10:52:41.294Z,28.69
2022-08-16T10:57:43.559Z,28.38
2022-08-16T11:00:21.256Z,29.29
2022-08-16T11:03:00.184Z,30.09
2022-08-16T11:05:19.098Z,30.64
2022-08-16T11:07:51.920Z,31.86
2022-08-16T11:12:56.461Z,31.41
2022-08-16T11:15:26.904Z,31.91
2022-08-16T11:20:49.307Z,31.66
2022-08-16T11:22:59.764Z,31.63
2022-08-16T11:28:04.053Z,30.89
2022-08-16T11:30:38.818Z,31.63
2022-08-16T11:33:05.536Z,29.82
2022-08-16T11:35:44.389Z,30.80
2022-08-16T11:38:47.285Z,30.17
2022-08-16T11:40:53.142Z,30.06
2022-08-16T11:43:26.601Z,29.61
2022-08-16T11:45:57.550Z,29.84
2022-08-16T11:48:30.862Z,29.14
2022-08-16T11:51:00.708Z,28.14
2022-08-16T11:53:35.890Z,27.66
2022-08-16T11:56:06.182Z,27.50
2022-08-16T11:58:36.808Z,27.71
2022-08-16T12:01:10.652Z,27.43
2022-08-16T12:03:41.923Z,26.95
2022-08-16T12:06:30.354Z,26.62
2022-08-16T12:08:46.981Z,26.68
2022-08-16T12:11:16.645Z,27.07
2022-08-16T12:13:46.761Z,26.96
2022-08-16T12:16:20.472Z,26.96
2022-08-16T12:18:50.424Z,27.49
2022-08-16T12:21:19.803Z,27.81
2022-08-16T12:23:49.158Z,28.25
2022-08-16T12:26:19.659Z,29.42
2022-08-16T12:28:54.692Z,28.78
2022-08-16T12:31:23.024Z,28.12
2022-08-16T12:33:54.372Z,28.96
2022-08-16T12:36:29.931Z,28.96
2022-08-16T12:38:58.785Z,28.85
2022-08-16T12:41:29.001Z,28.66
2022-08-16T12:44:01.288Z,28.44
2022-08-16T12:46:31.412Z,28.77
2022-08-16T12:49:03.366Z,28.52
2022-08-16T12:51:59.864Z,28.20
2022-08-16T12:54:09.741Z,28.18
2022-08-16T12:56:40.270Z,27.53
2022-08-16T12:59:19.858Z,27.99
2022-08-16T13:01:47.896Z,29.11
2022-08-16T13:04:20.650Z,30.21
2022-08-16T13:06:52.339Z,29.31
2022-08-16T13:09:26.867Z,29.42
2022-08-16T13:12:09.674Z,28.86
2022-08-16T13:14:41.750Z,28.97
2022-08-16T13:17:19.140Z,29.65
2022-08-16T13:22:19.701Z,30.60
2022-08-16T13:24:48.158Z,30.70
2022-08-16T13:27:19.226Z,30.02
2022-08-16T13:29:50.266Z,29.05
2022-08-16T13:32:40.135Z,28.89
2022-08-16T13:34:52.295Z,28.50
2022-08-16T13:37:21.603Z,28.80
2022-08-16T13:39:51.330Z,28.82
2022-08-16T13:42:21.035Z,28.94
2022-08-16T13:44:58.094Z,28.51
2022-08-16T13:47:21.511Z,28.29
2022-08-16T13:49:52.763Z,28.52
2022-08-16T13:52:25.615Z,27.99
2022-08-16T13:54:57.213Z,27.11
2022-08-16T13:57:53.175Z,27.23
2022-08-16T13:59:57.855Z,27.20
2022-08-16T14:02:27.493Z,27.25
2022-08-16T14:05:01.915Z,27.92
2022-08-16T14:07:28.116Z,27.95
2022-08-16T14:09:59.601Z,28.31
2022-08-16T14:12:31.366Z,28.74
2022-08-16T14:15:02.778Z,29.05
2022-08-16T14:18:14.879Z,29.12
2022-08-16T14:20:03.383Z,29.23
2022-08-16T14:22:39.945Z,29.25
2022-08-16T14:25:11.681Z,28.99
2022-08-16T14:27:44.356Z,28.81
2022-08-16T14:30:16.284Z,28.86
2022-08-16T14:32:51.181Z,28.68
2022-08-16T14:35:18.388Z,28.59
2022-08-16T14:37:47.569Z,28.55
2022-08-16T14:40:19.389Z,28.51
2022-08-16T14:42:49.395Z,28.61
2022-08-16T14:45:22.411Z,28.99
2022-08-16T14:47:53.500Z,29.03
2022-08-16T14:50:25.976Z,28.76
2022-08-16T14:52:59.538Z,28.47
2022-08-16T14:55:31.477Z,28.48
2022-08-16T14:58:01.628Z,28.33
2022-08-16T15:00:33.139Z,28.28
2022-08-16T15:03:05.742Z,28.19
2022-08-16T15:05:35.144Z,28.04
2022-08-16T15:08:05.410Z,28.04
2022-08-16T15:10:35.005Z,28.06
2022-08-16T15:13:09.927Z,27.97
2022-08-16T15:15:40.627Z,27.84
2022-08-16T15:18:11.989Z,27.85
2022-08-16T15:20:43.338Z,27.80
2022-08-16T15:23:12.852Z,27.87
2022-08-16T15:26:02.923Z,27.95
2022-08-16T15:28:30.993Z,27.97
2022-08-16T15:30:59.661Z,27.88
2022-08-16T15:33:24.007Z,28.15
2022-08-16T15:35:58.312Z,28.55
2022-08-16T15:38:55.149Z,28.73
2022-08-16T15:40:59.059Z,28.84
2022-08-16T15:43:38.904Z,28.78
2022-08-16T15:46:34.538Z,28.75
2022-08-16T15:48:49.721Z,28.80
2022-08-16T15:51:20.889Z,28.81
2022-08-16T15:54:12.136Z,28.53
2022-08-16T15:56:27.773Z,28.58
2022-08-16T15:58:56.668Z,28.42
2022-08-16T16:01:25.954Z,28.30
2022-08-16T16:03:56.005Z,28.08
2022-08-16T16:06:28.804Z,27.94
2022-08-16T16:08:58.141Z,27.97
2022-08-16T16:11:27.903Z,27.78
2022-08-16T16:13:59.087Z,27.80
2022-08-16T16:16:28.700Z,27.60
2022-08-16T16:18:58.052Z,27.58
2022-08-16T16:21:27.522Z,27.53
2022-08-16T16:23:57.724Z,27.64
2022-08-16T16:26:28.897Z,27.72
2022-08-16T16:29:07.867Z,27.66
2022-08-16T16:31:29.472Z,27.66
2022-08-16T16:34:01.071Z,27.67
2022-08-16T16:36:33.298Z,27.65
2022-08-16T16:39:06.006Z,27.54
2022-08-16T16:41:38.624Z,27.45
2022-08-16T16:44:10.127Z,27.42
2022-08-16T16:46:43.213Z,27.33
2022-08-16T16:49:13.853Z,27.12
2022-08-16T16:51:49.720Z,26.92
2022-08-16T16:54:27.712Z,26.78
2022-08-16T16:56:50.331Z,26.68
2022-08-16T16:59:20.240Z,26.48
2022-08-16T17:01:57.813Z,26.22
2022-08-16T17:04:32.044Z,25.95
2022-08-16T17:06:57.303Z,25.64
2022-08-16T17:09:26.542Z,25.64
2022-08-16T17:11:56.088Z,25.54
2022-08-16T17:14:32.776Z,25.52
2022-08-16T17:16:57.283Z,25.52
2022-08-16T17:19:31.731Z,25.59
2022-08-16T17:21:58.919Z,25.61
2022-08-16T17:24:32.002Z,25.66
2022-08-16T17:27:01.249Z,25.53
2022-08-16T17:29:32.815Z,25.53
2022-08-16T17:32:44.621Z,25.39
2022-08-16T17:34:33.529Z,25.33
2022-08-16T17:37:08.200Z,25.34
2022-08-16T17:39:59.577Z,25.27
2022-08-16T17:42:16.002Z,25.23
2022-08-16T17:44:45.911Z,25.25
2022-08-16T17:47:15.191Z,25.20
2022-08-16T17:49:44.468Z,25.13
2022-08-16T17:52:14.696Z,25.09
2022-08-16T17:54:44.226Z,25.06
2022-08-16T17:57:13.608Z,25.00
2022-08-16T17:59:44.487Z,24.91
2022-08-16T18:02:42.302Z,24.74
2022-08-16T18:04:49.561Z,24.61
2022-08-16T18:07:16.193Z,24.42
2022-08-16T18:09:45.503Z,24.37
2022-08-16T18:12:41.586Z,24.29
2022-08-16T18:14:52.492Z,24.21
2022-08-16T18:17:21.197Z,24.06
2022-08-16T18:19:50.537Z,24.06
2022-08-16T18:22:30.255Z,24.04
2022-08-16T18:24:56.688Z,23.99
2022-08-16T18:27:27.423Z,23.95
2022-08-16T18:29:56.978Z,23.88
2022-08-16T18:32:27.623Z,23.82
2022-08-16T18:34:56.917Z,23.77
2022-08-16T18:37:26.188Z,23.71
2022-08-16T18:39:58.067Z,23.62
2022-08-16T18:42:26.465Z,23.60
2022-08-16T18:44:55.975Z,23.55
2022-08-16T18:47:25.198Z,23.51
2022-08-16T18:49:54.457Z,23.48
2022-08-16T18:52:25.945Z,23.39
2022-08-16T18:55:02.733Z,23.34
2022-08-16T18:57:27.008Z,23.29
2022-08-16T18:59:56.332Z,23.24
2022-08-16T19:02:56.792Z,23.20
2022-08-16T19:04:58.693Z,23.13
2022-08-16T19:07:30.419Z,23.07
2022-08-16T19:10:00.012Z,23.01
2022-08-16T19:12:38.273Z,22.95
2022-08-16T19:15:01.249Z,22.79
2022-08-16T19:17:30.768Z,22.71
2022-08-16T19:20:00.103Z,22.67
2022-08-16T19:22:59.448Z,22.64
2022-08-16T19:25:04.418Z,22.60
2022-08-16T19:27:35.965Z,22.58
2022-08-16T19:30:07.543Z,22.57
2022-08-16T19:32:39.243Z,22.49
2022-08-16T19:35:10.237Z,22.45
2022-08-16T19:37:46.618Z,22.38
2022-08-16T19:40:36.067Z,22.34
2022-08-16T19:42:45.501Z,22.31
2022-08-16T19:45:18.866Z,22.27
2022-08-16T19:47:50.701Z,22.24
2022-08-16T19:50:36.084Z,22.20
2022-08-16T19:52:58.123Z,22.10
2022-08-16T19:55:28.465Z,22.07
2022-08-16T19:57:58.724Z,22.03
2022-08-16T20:00:35.646Z,21.96
2022-08-16T20:02:59.215Z,21.95
2022-08-16T20:05:35.517Z,21.93
2022-08-16T20:08:06.333Z,21.89
2022-08-16T20:10:36.007Z,21.83
2022-08-16T20:13:08.618Z,21.74
2022-08-16T20:15:40.660Z,21.71
2022-08-16T20:18:12.465Z,21.67
2022-08-16T20:20:40.436Z,21.61
2022-08-16T20:23:24.987Z,21.59
2022-08-16T20:25:53.763Z,21.55
2022-08-16T20:28:39.466Z,21.51
2022-08-16T20:30:54.308Z,21.47
2022-08-16T20:33:23.725Z,21.45
2022-08-16T20:35:53.049Z,21.40
2022-08-16T20:38:24.200Z,21.35
2022-08-16T20:40:53.546Z,21.30
2022-08-16T20:43:22.853Z,21.26
2022-08-16T20:45:52.206Z,21.23
2022-08-16T20:48:21.500Z,21.22
2022-08-16T20:50:50.877Z,21.18
2022-08-16T20:53:20.177Z,21.17
2022-08-16T20:55:49.577Z,21.10
2022-08-16T20:58:19.115Z,21.05
2022-08-16T21:00:48.664Z,21.01
2022-08-16T21:03:17.937Z,20.91
2022-08-16T21:05:47.807Z,20.84
2022-08-16T21:08:50.385Z,20.82
2022-08-16T21:10:48.618Z,20.80
2022-08-16T21:13:17.938Z,20.82
2022-08-16T21:15:47.325Z,20.80
2022-08-16T21:18:16.613Z,20.82
2022-08-16T21:20:45.996Z,20.79
2022-08-16T21:23:15.564Z,20.78
2022-08-16T21:25:57.731Z,20.79
2022-08-16T21:28:41.910Z,20.82
2022-08-16T21:30:48.757Z,20.84
2022-08-16T21:33:20.004Z,20.86
2022-08-16T21:35:50.108Z,20.85
2022-08-16T21:38:28.579Z,20.85
2022-08-16T21:40:51.795Z,20.91
2022-08-16T21:43:24.156Z,20.96
2022-08-16T21:45:55.977Z,20.98
2022-08-16T21:48:33.517Z,21.00
2022-08-16T21:50:58.077Z,21.01
2022-08-16T21:53:29.512Z,21.04
2022-08-16T21:56:01.100Z,21.08
2022-08-16T21:58:31.166Z,21.07
2022-08-16T22:01:01.090Z,21.10
2022-08-16T22:03:33.031Z,21.11
2022-08-16T22:06:12.723Z,21.07
2022-08-16T22:08:34.233Z,21.09
2022-08-16T22:11:09.099Z,21.16
2022-08-16T22:13:36.874Z,21.24
2022-08-16T22:16:10.365Z,21.33
2022-08-16T22:18:39.712Z,21.42
2022-08-16T22:21:09.004Z,21.41
2022-08-16T22:23:38.552Z,21.43
2022-08-16T22:26:07.910Z,21.42
2022-08-16T22:28:37.272Z,21.43
2022-08-16T22:31:06.837Z,21.47
2022-08-16T22:33:36.181Z,21.47
2022-08-16T22:36:06.585Z,21.46
2022-08-16T22:38:54.701Z,21.42
2022-08-16T22:41:07.217Z,21.41
2022-08-16T22:43:36.597Z,21.41
2022-08-16T22:46:06.201Z,21.51
2022-08-16T22:48:39.372Z,21.63
2022-08-16T22:51:06.580Z,21.69
2022-08-16T22:53:37.473Z,21.75
2022-08-16T22:56:07.367Z,21.79
2022-08-16T22:58:37.402Z,21.78
2022-08-16T23:01:09.361Z,21.78
2022-08-16T23:03:41.132Z,21.79
2022-08-16T23:06:12.187Z,21.77
2022-08-16T23:08:43.029Z,21.79
2022-08-16T23:11:22.835Z,21.83
2022-08-16T23:13:54.716Z,21.75
2022-08-16T23:16:32.831Z,21.68
2022-08-16T23:19:07.727Z,21.62
2022-08-16T23:21:39.425Z,21.57
2022-08-16T23:24:09.661Z,21.51
2022-08-16T23:26:46.919Z,21.47
2022-08-16T23:29:21.944Z,21.47
2022-08-16T23:31:45.324Z,21.55
2022-08-16T23:34:14.605Z,21.55
2022-08-16T23:36:47.043Z,21.54
2022-08-16T23:39:17.284Z,21.50
2022-08-16T23:41:49.239Z,21.43
2022-08-16T23:44:55.517Z,21.39
2022-08-16T23:46:53.983Z,21.31
2022-08-16T23:49:59.137Z,21.24
2022-08-16T23:51:54.626Z,21.19
2022-08-16T23:54:24.233Z,21.10
2022-08-16T23:56:53.943Z,21.02
2022-08-16T23:59:26.250Z,20.97
